sensor_id;sensor_type;location;lat;lon;timestamp;P1;durP1;ratioP1;P2;durP2;ratioP2
74347;SDS011;62778;50.406;10.008;2022-12-07T00:00:19;6.97;;;3.97;;
74347;SDS011;62778;50.406;10.008;2022-12-07T00:01:21;8.05;;;3.92;;
74347;SDS011;62778;50.406;10.008;2022-12-07T00:02:18;7.20;;;3.47;;
74347;SDS011;62778;50.406;10.008;2022-12-07T00:03:14;7.50;;;3.70;;
74347;SDS011;62778;50.406;10.008;2022-12-07T00:04:10;8.17;;;4.10;;
74347;SDS011;62778;50.406;10.008;2022-12-07T00:05:07;8.00;;;3.80;;
74347;SDS011;62778;50.406;10.008;2022-12-07T00:06:03;7.57;;;3.83;;
74347;SDS011;62778;50.406;10.008;2022-12-07T00:06:59;7.28;;;3.88;;
74347;SDS011;62778;50.406;10.008;2022-12-07T00:07:54;7.73;;;3.83;;
74347;SDS011;62778;50.406;10.008;2022-12-07T00:08:50;8.35;;;3.75;;
74347;SDS011;62778;50.406;10.008;2022-12-07T00:09:45;7.73;;;3.80;;
74347;SDS011;62778;50.406;10.008;2022-12-07T00:10:40;7.37;;;3.77;;
74347;SDS011;62778;50.406;10.008;2022-12-07T00:11:36;8.55;;;4.53;;
74347;SDS011;62778;50.406;10.008;2022-12-07T00:12:31;7.80;;;3.60;;
74347;SDS011;62778;50.406;10.008;2022-12-07T00:13:27;9.67;;;4.60;;
74347;SDS011;62778;50.406;10.008;2022-12-07T00:14:22;9.67;;;4.77;;
74347;SDS011;62778;50.406;10.008;2022-12-07T00:15:17;8.23;;;4.22;;
74347;SDS011;62778;50.406;10.008;2022-12-07T00:16:14;9.30;;;4.43;;
74347;SDS011;62778;50.406;10.008;2022-12-07T00:17:11;8.95;;;4.30;;
74347;SDS011;62778;50.406;10.008;2022-12-07T00:18:06;8.40;;;4.33;;
74347;SDS011;62778;50.406;10.008;2022-12-07T00:19:02;7.67;;;3.60;;
74347;SDS011;62778;50.406;10.008;2022-12-07T00:19:58;7.97;;;3.85;;
74347;SDS011;62778;50.406;10.008;2022-12-07T00:20:58;7.53;;;3.87;;
74347;SDS011;62778;50.406;10.008;2022-12-07T00:21:56;8.70;;;4.30;;
74347;SDS011;62778;50.406;10.008;2022-12-07T00:22:51;9.13;;;4.50;;
74347;SDS011;62778;50.406;10.008;2022-12-07T00:23:47;9.17;;;4.73;;
74347;SDS011;62778;50.406;10.008;2022-12-07T00:24:43;9.15;;;4.75;;
74347;SDS011;62778;50.406;10.008;2022-12-07T00:25:39;9.30;;;4.73;;
74347;SDS011;62778;50.406;10.008;2022-12-07T00:26:38;8.97;;;4.77;;
74347;SDS011;62778;50.406;10.008;2022-12-07T00:27:34;10.38;;;4.85;;
74347;SDS011;62778;50.406;10.008;2022-12-07T00:28:29;8.43;;;4.57;;
74347;SDS011;62778;50.406;10.008;2022-12-07T00:29:24;8.30;;;4.40;;
74347;SDS011;62778;50.406;10.008;2022-12-07T00:30:20;9.30;;;4.75;;
74347;SDS011;62778;50.406;10.008;2022-12-07T00:31:16;10.87;;;5.87;;
74347;SDS011;62778;50.406;10.008;2022-12-07T00:32:12;9.25;;;4.68;;
74347;SDS011;62778;50.406;10.008;2022-12-07T00:33:07;10.17;;;4.63;;
74347;SDS011;62778;50.406;10.008;2022-12-07T00:34:03;11.70;;;5.83;;
74347;SDS011;62778;50.406;10.008;2022-12-07T00:34:58;10.87;;;5.67;;
74347;SDS011;62778;50.406;10.008;2022-12-07T00:35:57;8.67;;;4.90;;
74347;SDS011;62778;50.406;10.008;2022-12-07T00:36:53;8.77;;;4.57;;
74347;SDS011;62778;50.406;10.008;2022-12-07T00:37:48;8.82;;;4.72;;
74347;SDS011;62778;50.406;10.008;2022-12-07T00:38:44;8.10;;;4.40;;
74347;SDS011;62778;50.406;10.008;2022-12-07T00:39:39;8.87;;;4.27;;
74347;SDS011;62778;50.406;10.008;2022-12-07T00:40:34;9.90;;;4.33;;
74347;SDS011;62778;50.406;10.008;2022-12-07T00:41:30;8.83;;;4.47;;
74347;SDS011;62778;50.406;10.008;2022-12-07T00:42:25;7.72;;;4.20;;
74347;SDS011;62778;50.406;10.008;2022-12-07T00:43:21;9.27;;;4.67;;
74347;SDS011;62778;50.406;10.008;2022-12-07T00:44:16;9.10;;;4.70;;
74347;SDS011;62778;50.406;10.008;2022-12-07T00:45:11;8.57;;;4.37;;
74347;SDS011;62778;50.406;10.008;2022-12-07T00:46:07;7.65;;;4.10;;
74347;SDS011;62778;50.406;10.008;2022-12-07T00:47:02;8.83;;;4.37;;
74347;SDS011;62778;50.406;10.008;2022-12-07T00:47:57;7.97;;;3.87;;
74347;SDS011;62778;50.406;10.008;2022-12-07T00:48:53;8.60;;;4.50;;
74347;SDS011;62778;50.406;10.008;2022-12-07T00:49:48;8.00;;;4.18;;
74347;SDS011;62778;50.406;10.008;2022-12-07T00:50:44;8.87;;;4.50;;
74347;SDS011;62778;50.406;10.008;2022-12-07T00:51:39;8.50;;;4.30;;
74347;SDS011;62778;50.406;10.008;2022-12-07T00:52:34;10.27;;;4.82;;
74347;SDS011;62778;50.406;10.008;2022-12-07T00:53:30;7.80;;;3.93;;
74347;SDS011;62778;50.406;10.008;2022-12-07T00:54:25;9.73;;;4.80;;
74347;SDS011;62778;50.406;10.008;2022-12-07T00:55:20;9.13;;;4.67;;
74347;SDS011;62778;50.406;10.008;2022-12-07T00:56:25;8.18;;;4.32;;
74347;SDS011;62778;50.406;10.008;2022-12-07T00:57:22;9.67;;;4.97;;
74347;SDS011;62778;50.406;10.008;2022-12-07T00:58:17;9.23;;;5.05;;
74347;SDS011;62778;50.406;10.008;2022-12-07T00:59:13;10.47;;;4.80;;
74347;SDS011;62778;50.406;10.008;2022-12-07T01:00:11;9.77;;;4.80;;
74347;SDS011;62778;50.406;10.008;2022-12-07T01:01:07;10.83;;;5.63;;
74347;SDS011;62778;50.406;10.008;2022-12-07T01:02:03;10.95;;;5.43;;
74347;SDS011;62778;50.406;10.008;2022-12-07T01:02:59;9.73;;;4.90;;
74347;SDS011;62778;50.406;10.008;2022-12-07T01:03:54;10.45;;;4.80;;
74347;SDS011;62778;50.406;10.008;2022-12-07T01:04:49;8.50;;;4.60;;
74347;SDS011;62778;50.406;10.008;2022-12-07T01:05:49;9.43;;;4.67;;
74347;SDS011;62778;50.406;10.008;2022-12-07T01:06:46;10.60;;;5.15;;
74347;SDS011;62778;50.406;10.008;2022-12-07T01:07:41;10.90;;;5.57;;
74347;SDS011;62778;50.406;10.008;2022-12-07T01:08:37;8.93;;;4.33;;
74347;SDS011;62778;50.406;10.008;2022-12-07T01:09:32;9.18;;;4.50;;
74347;SDS011;62778;50.406;10.008;2022-12-07T01:10:28;9.00;;;4.50;;
74347;SDS011;62778;50.406;10.008;2022-12-07T01:11:26;8.63;;;4.45;;
74347;SDS011;62778;50.406;10.008;2022-12-07T01:12:23;9.73;;;4.90;;
74347;SDS011;62778;50.406;10.008;2022-12-07T01:13:18;8.33;;;4.60;;
74347;SDS011;62778;50.406;10.008;2022-12-07T01:14:13;10.00;;;5.20;;
74347;SDS011;62778;50.406;10.008;2022-12-07T01:15:09;10.20;;;5.03;;
74347;SDS011;62778;50.406;10.008;2022-12-07T01:16:06;10.40;;;5.30;;
74347;SDS011;62778;50.406;10.008;2022-12-07T01:17:01;8.68;;;4.78;;
74347;SDS011;62778;50.406;10.008;2022-12-07T01:17:57;9.83;;;5.13;;
74347;SDS011;62778;50.406;10.008;2022-12-07T01:18:55;9.68;;;4.90;;
74347;SDS011;62778;50.406;10.008;2022-12-07T01:19:50;8.57;;;4.50;;
74347;SDS011;62778;50.406;10.008;2022-12-07T01:20:56;8.43;;;4.53;;
74347;SDS011;62778;50.406;10.008;2022-12-07T01:21:52;9.23;;;4.90;;
74347;SDS011;62778;50.406;10.008;2022-12-07T01:22:47;9.23;;;4.87;;
74347;SDS011;62778;50.406;10.008;2022-12-07T01:23:43;9.80;;;5.17;;
74347;SDS011;62778;50.406;10.008;2022-12-07T01:24:38;10.95;;;6.05;;
74347;SDS011;62778;50.406;10.008;2022-12-07T01:25:34;10.90;;;5.93;;
74347;SDS011;62778;50.406;10.008;2022-12-07T01:26:29;9.77;;;5.10;;
74347;SDS011;62778;50.406;10.008;2022-12-07T01:27:24;10.40;;;5.50;;
74347;SDS011;62778;50.406;10.008;2022-12-07T01:28:19;11.27;;;5.37;;
74347;SDS011;62778;50.406;10.008;2022-12-07T01:29:15;10.25;;;5.32;;
74347;SDS011;62778;50.406;10.008;2022-12-07T01:30:10;10.57;;;5.20;;
74347;SDS011;62778;50.406;10.008;2022-12-07T01:31:07;9.55;;;5.07;;
74347;SDS011;62778;50.406;10.008;2022-12-07T01:32:11;9.35;;;5.47;;
74347;SDS011;62778;50.406;10.008;2022-12-07T01:33:06;10.23;;;5.33;;
74347;SDS011;62778;50.406;10.008;2022-12-07T01:34:01;9.20;;;4.73;;
74347;SDS011;62778;50.406;10.008;2022-12-07T01:34:57;9.27;;;5.10;;
74347;SDS011;62778;50.406;10.008;2022-12-07T01:35:52;10.03;;;5.47;;
74347;SDS011;62778;50.406;10.008;2022-12-07T01:36:47;10.83;;;5.57;;
74347;SDS011;62778;50.406;10.008;2022-12-07T01:37:43;10.00;;;5.10;;
74347;SDS011;62778;50.406;10.008;2022-12-07T01:38:38;11.27;;;5.23;;
74347;SDS011;62778;50.406;10.008;2022-12-07T01:39:33;9.50;;;5.25;;
74347;SDS011;62778;50.406;10.008;2022-12-07T01:40:31;9.60;;;4.93;;
74347;SDS011;62778;50.406;10.008;2022-12-07T01:41:28;10.55;;;5.35;;
74347;SDS011;62778;50.406;10.008;2022-12-07T01:42:25;11.50;;;6.50;;
74347;SDS011;62778;50.406;10.008;2022-12-07T01:43:21;12.80;;;6.63;;
74347;SDS011;62778;50.406;10.008;2022-12-07T01:44:21;11.65;;;6.20;;
74347;SDS011;62778;50.406;10.008;2022-12-07T01:46:13;12.23;;;5.60;;
74347;SDS011;62778;50.406;10.008;2022-12-07T01:47:09;11.30;;;5.77;;
74347;SDS011;62778;50.406;10.008;2022-12-07T01:48:05;11.20;;;5.50;;
74347;SDS011;62778;50.406;10.008;2022-12-07T01:49:01;10.95;;;6.10;;
74347;SDS011;62778;50.406;10.008;2022-12-07T01:49:57;11.00;;;6.17;;
74347;SDS011;62778;50.406;10.008;2022-12-07T01:50:52;10.05;;;5.50;;
74347;SDS011;62778;50.406;10.008;2022-12-07T01:51:49;9.30;;;5.20;;
74347;SDS011;62778;50.406;10.008;2022-12-07T01:52:46;10.37;;;5.83;;
74347;SDS011;62778;50.406;10.008;2022-12-07T01:53:44;11.98;;;6.20;;
74347;SDS011;62778;50.406;10.008;2022-12-07T01:54:40;10.57;;;5.47;;
74347;SDS011;62778;50.406;10.008;2022-12-07T01:55:38;11.02;;;5.40;;
74347;SDS011;62778;50.406;10.008;2022-12-07T01:56:37;11.70;;;5.88;;
74347;SDS011;62778;50.406;10.008;2022-12-07T01:57:38;11.27;;;5.57;;
74347;SDS011;62778;50.406;10.008;2022-12-07T01:58:35;10.27;;;4.65;;
74347;SDS011;62778;50.406;10.008;2022-12-07T01:59:31;10.30;;;5.47;;
74347;SDS011;62778;50.406;10.008;2022-12-07T02:00:26;10.18;;;5.00;;
74347;SDS011;62778;50.406;10.008;2022-12-07T02:01:21;9.83;;;5.20;;
74347;SDS011;62778;50.406;10.008;2022-12-07T02:02:18;8.70;;;4.40;;
74347;SDS011;62778;50.406;10.008;2022-12-07T02:03:34;9.10;;;4.40;;
74347;SDS011;62778;50.406;10.008;2022-12-07T02:04:33;9.48;;;4.60;;
74347;SDS011;62778;50.406;10.008;2022-12-07T02:05:28;9.73;;;4.93;;
74347;SDS011;62778;50.406;10.008;2022-12-07T02:06:24;9.90;;;5.03;;
74347;SDS011;62778;50.406;10.008;2022-12-07T02:07:20;9.15;;;4.90;;
74347;SDS011;62778;50.406;10.008;2022-12-07T02:08:16;8.77;;;4.32;;
74347;SDS011;62778;50.406;10.008;2022-12-07T02:09:12;9.30;;;4.88;;
74347;SDS011;62778;50.406;10.008;2022-12-07T02:10:18;9.07;;;4.60;;
74347;SDS011;62778;50.406;10.008;2022-12-07T02:11:17;8.07;;;4.13;;
74347;SDS011;62778;50.406;10.008;2022-12-07T02:12:13;9.18;;;4.78;;
74347;SDS011;62778;50.406;10.008;2022-12-07T02:14:07;9.30;;;4.63;;
74347;SDS011;62778;50.406;10.008;2022-12-07T02:15:02;8.67;;;4.13;;
74347;SDS011;62778;50.406;10.008;2022-12-07T02:17:20;9.10;;;4.20;;
74347;SDS011;62778;50.406;10.008;2022-12-07T02:18:57;9.77;;;4.65;;
74347;SDS011;62778;50.406;10.008;2022-12-07T02:24:15;9.40;;;4.20;;
74347;SDS011;62778;50.406;10.008;2022-12-07T02:28:04;9.98;;;4.50;;
74347;SDS011;62778;50.406;10.008;2022-12-07T02:30:30;9.57;;;4.57;;
74347;SDS011;62778;50.406;10.008;2022-12-07T02:31:27;8.68;;;4.40;;
74347;SDS011;62778;50.406;10.008;2022-12-07T02:32:43;9.32;;;5.32;;
74347;SDS011;62778;50.406;10.008;2022-12-07T02:33:46;10.23;;;5.03;;
74347;SDS011;62778;50.406;10.008;2022-12-07T02:34:48;9.98;;;4.32;;
74347;SDS011;62778;50.406;10.008;2022-12-07T02:35:59;10.05;;;5.00;;
74347;SDS011;62778;50.406;10.008;2022-12-07T02:37:00;11.10;;;5.13;;
74347;SDS011;62778;50.406;10.008;2022-12-07T02:39:11;11.20;;;5.60;;
74347;SDS011;62778;50.406;10.008;2022-12-07T02:40:17;9.23;;;4.93;;
74347;SDS011;62778;50.406;10.008;2022-12-07T02:41:26;9.38;;;4.85;;
74347;SDS011;62778;50.406;10.008;2022-12-07T02:42:24;11.88;;;5.97;;
74347;SDS011;62778;50.406;10.008;2022-12-07T02:43:25;10.05;;;5.22;;
74347;SDS011;62778;50.406;10.008;2022-12-07T02:44:23;9.77;;;5.03;;
74347;SDS011;62778;50.406;10.008;2022-12-07T02:45:21;9.50;;;5.05;;
74347;SDS011;62778;50.406;10.008;2022-12-07T02:46:19;10.27;;;5.32;;
74347;SDS011;62778;50.406;10.008;2022-12-07T02:47:17;11.00;;;5.55;;
74347;SDS011;62778;50.406;10.008;2022-12-07T02:48:16;10.85;;;5.57;;
74347;SDS011;62778;50.406;10.008;2022-12-07T02:49:12;9.45;;;4.90;;
74347;SDS011;62778;50.406;10.008;2022-12-07T02:50:07;11.60;;;5.50;;
74347;SDS011;62778;50.406;10.008;2022-12-07T02:51:06;11.80;;;5.72;;
74347;SDS011;62778;50.406;10.008;2022-12-07T02:52:01;11.30;;;6.13;;
74347;SDS011;62778;50.406;10.008;2022-12-07T02:52:56;11.20;;;4.77;;
74347;SDS011;62778;50.406;10.008;2022-12-07T02:53:52;10.60;;;5.60;;
74347;SDS011;62778;50.406;10.008;2022-12-07T02:54:47;10.60;;;5.30;;
74347;SDS011;62778;50.406;10.008;2022-12-07T02:55:42;9.80;;;5.32;;
74347;SDS011;62778;50.406;10.008;2022-12-07T02:57:45;10.15;;;4.85;;
74347;SDS011;62778;50.406;10.008;2022-12-07T02:59:58;10.23;;;5.55;;
74347;SDS011;62778;50.406;10.008;2022-12-07T03:01:02;10.13;;;5.57;;
74347;SDS011;62778;50.406;10.008;2022-12-07T03:03:30;10.65;;;5.25;;
74347;SDS011;62778;50.406;10.008;2022-12-07T03:07:21;9.77;;;5.23;;
74347;SDS011;62778;50.406;10.008;2022-12-07T03:08:41;10.50;;;4.97;;
74347;SDS011;62778;50.406;10.008;2022-12-07T03:09:59;11.60;;;5.35;;
74347;SDS011;62778;50.406;10.008;2022-12-07T03:10:59;9.20;;;4.60;;
74347;SDS011;62778;50.406;10.008;2022-12-07T03:12:09;10.38;;;5.25;;
74347;SDS011;62778;50.406;10.008;2022-12-07T03:13:12;9.32;;;4.85;;
74347;SDS011;62778;50.406;10.008;2022-12-07T03:14:24;9.68;;;4.68;;
74347;SDS011;62778;50.406;10.008;2022-12-07T03:15:43;8.70;;;4.45;;
74347;SDS011;62778;50.406;10.008;2022-12-07T03:16:43;8.63;;;4.45;;
74347;SDS011;62778;50.406;10.008;2022-12-07T03:17:44;8.95;;;4.72;;
74347;SDS011;62778;50.406;10.008;2022-12-07T03:19:58;8.75;;;4.28;;
74347;SDS011;62778;50.406;10.008;2022-12-07T03:20:55;9.20;;;4.32;;
74347;SDS011;62778;50.406;10.008;2022-12-07T03:21:55;8.60;;;4.47;;
74347;SDS011;62778;50.406;10.008;2022-12-07T03:22:52;8.13;;;3.90;;
74347;SDS011;62778;50.406;10.008;2022-12-07T03:23:50;8.55;;;3.85;;
74347;SDS011;62778;50.406;10.008;2022-12-07T03:24:49;9.75;;;4.68;;
74347;SDS011;62778;50.406;10.008;2022-12-07T03:25:48;9.10;;;4.43;;
74347;SDS011;62778;50.406;10.008;2022-12-07T03:26:49;8.73;;;4.45;;
74347;SDS011;62778;50.406;10.008;2022-12-07T03:27:53;7.72;;;3.85;;
74347;SDS011;62778;50.406;10.008;2022-12-07T03:28:54;8.93;;;4.03;;
74347;SDS011;62778;50.406;10.008;2022-12-07T03:29:53;8.68;;;4.50;;
74347;SDS011;62778;50.406;10.008;2022-12-07T03:30:56;9.98;;;4.55;;
74347;SDS011;62778;50.406;10.008;2022-12-07T03:31:57;8.25;;;4.22;;
74347;SDS011;62778;50.406;10.008;2022-12-07T03:33:59;8.30;;;4.30;;
74347;SDS011;62778;50.406;10.008;2022-12-07T03:34:57;9.30;;;4.00;;
74347;SDS011;62778;50.406;10.008;2022-12-07T03:37:57;8.68;;;3.97;;
74347;SDS011;62778;50.406;10.008;2022-12-07T03:39:00;8.75;;;4.20;;
74347;SDS011;62778;50.406;10.008;2022-12-07T03:41:11;9.05;;;4.22;;
74347;SDS011;62778;50.406;10.008;2022-12-07T03:42:09;10.15;;;4.90;;
74347;SDS011;62778;50.406;10.008;2022-12-07T03:43:05;8.55;;;4.15;;
74347;SDS011;62778;50.406;10.008;2022-12-07T03:44:00;9.38;;;5.13;;
74347;SDS011;62778;50.406;10.008;2022-12-07T03:44:56;9.97;;;4.87;;
74347;SDS011;62778;50.406;10.008;2022-12-07T03:46:17;9.20;;;4.80;;
74347;SDS011;62778;50.406;10.008;2022-12-07T03:48:22;9.85;;;4.82;;
74347;SDS011;62778;50.406;10.008;2022-12-07T03:49:31;8.82;;;4.30;;
74347;SDS011;62778;50.406;10.008;2022-12-07T03:50:38;10.13;;;5.18;;
74347;SDS011;62778;50.406;10.008;2022-12-07T03:52:55;9.40;;;4.45;;
74347;SDS011;62778;50.406;10.008;2022-12-07T03:53:59;10.45;;;5.32;;
74347;SDS011;62778;50.406;10.008;2022-12-07T03:56:08;9.03;;;4.70;;
74347;SDS011;62778;50.406;10.008;2022-12-07T03:57:04;8.20;;;4.85;;
74347;SDS011;62778;50.406;10.008;2022-12-07T03:58:07;9.10;;;4.40;;
74347;SDS011;62778;50.406;10.008;2022-12-07T03:59:05;8.93;;;4.40;;
74347;SDS011;62778;50.406;10.008;2022-12-07T04:00:01;9.23;;;4.73;;
74347;SDS011;62778;50.406;10.008;2022-12-07T04:00:59;8.48;;;4.13;;
74347;SDS011;62778;50.406;10.008;2022-12-07T04:01:56;9.27;;;4.63;;
74347;SDS011;62778;50.406;10.008;2022-12-07T04:02:54;9.85;;;5.20;;
74347;SDS011;62778;50.406;10.008;2022-12-07T04:03:50;8.98;;;4.68;;
74347;SDS011;62778;50.406;10.008;2022-12-07T04:04:45;10.73;;;6.00;;
74347;SDS011;62778;50.406;10.008;2022-12-07T04:05:41;9.50;;;5.07;;
74347;SDS011;62778;50.406;10.008;2022-12-07T04:06:37;9.57;;;4.87;;
74347;SDS011;62778;50.406;10.008;2022-12-07T04:07:32;9.33;;;4.83;;
74347;SDS011;62778;50.406;10.008;2022-12-07T04:08:27;9.13;;;4.83;;
74347;SDS011;62778;50.406;10.008;2022-12-07T04:09:23;9.63;;;4.73;;
74347;SDS011;62778;50.406;10.008;2022-12-07T04:10:18;9.70;;;5.10;;
74347;SDS011;62778;50.406;10.008;2022-12-07T04:11:14;9.23;;;4.70;;
74347;SDS011;62778;50.406;10.008;2022-12-07T04:12:09;9.13;;;4.50;;
74347;SDS011;62778;50.406;10.008;2022-12-07T04:13:04;8.50;;;4.27;;
74347;SDS011;62778;50.406;10.008;2022-12-07T04:13:59;8.93;;;4.20;;
74347;SDS011;62778;50.406;10.008;2022-12-07T04:15:13;8.82;;;4.57;;
74347;SDS011;62778;50.406;10.008;2022-12-07T04:16:08;9.25;;;4.70;;
74347;SDS011;62778;50.406;10.008;2022-12-07T04:17:04;8.73;;;4.60;;
74347;SDS011;62778;50.406;10.008;2022-12-07T04:17:59;9.87;;;4.17;;
74347;SDS011;62778;50.406;10.008;2022-12-07T04:18:54;9.00;;;4.50;;
74347;SDS011;62778;50.406;10.008;2022-12-07T04:19:50;9.75;;;4.90;;
74347;SDS011;62778;50.406;10.008;2022-12-07T04:20:45;9.40;;;4.93;;
74347;SDS011;62778;50.406;10.008;2022-12-07T04:21:41;9.73;;;5.00;;
74347;SDS011;62778;50.406;10.008;2022-12-07T04:22:36;10.10;;;5.05;;
74347;SDS011;62778;50.406;10.008;2022-12-07T04:23:32;10.40;;;4.87;;
74347;SDS011;62778;50.406;10.008;2022-12-07T04:24:27;9.03;;;4.70;;
74347;SDS011;62778;50.406;10.008;2022-12-07T04:25:23;7.90;;;4.20;;
74347;SDS011;62778;50.406;10.008;2022-12-07T04:26:18;10.07;;;5.00;;
74347;SDS011;62778;50.406;10.008;2022-12-07T04:27:13;10.27;;;5.30;;
74347;SDS011;62778;50.406;10.008;2022-12-07T04:28:09;11.18;;;5.75;;
74347;SDS011;62778;50.406;10.008;2022-12-07T04:29:04;9.47;;;4.93;;
74347;SDS011;62778;50.406;10.008;2022-12-07T04:29:59;8.93;;;4.57;;
74347;SDS011;62778;50.406;10.008;2022-12-07T04:30:55;9.43;;;4.50;;
74347;SDS011;62778;50.406;10.008;2022-12-07T04:31:50;9.50;;;4.93;;
74347;SDS011;62778;50.406;10.008;2022-12-07T04:32:46;11.68;;;5.05;;
74347;SDS011;62778;50.406;10.008;2022-12-07T04:33:41;10.63;;;5.20;;
74347;SDS011;62778;50.406;10.008;2022-12-07T04:34:37;9.45;;;4.75;;
74347;SDS011;62778;50.406;10.008;2022-12-07T04:35:32;9.77;;;4.63;;
74347;SDS011;62778;50.406;10.008;2022-12-07T04:36:27;9.97;;;5.07;;
74347;SDS011;62778;50.406;10.008;2022-12-07T04:37:23;10.83;;;5.83;;
74347;SDS011;62778;50.406;10.008;2022-12-07T04:38:18;9.25;;;5.15;;
74347;SDS011;62778;50.406;10.008;2022-12-07T04:39:18;12.30;;;5.57;;
74347;SDS011;62778;50.406;10.008;2022-12-07T04:40:21;9.82;;;4.90;;
74347;SDS011;62778;50.406;10.008;2022-12-07T04:41:17;9.10;;;4.40;;
74347;SDS011;62778;50.406;10.008;2022-12-07T04:42:12;9.10;;;4.50;;
74347;SDS011;62778;50.406;10.008;2022-12-07T04:43:07;8.73;;;4.18;;
74347;SDS011;62778;50.406;10.008;2022-12-07T04:44:03;9.83;;;4.30;;
74347;SDS011;62778;50.406;10.008;2022-12-07T04:45:02;8.23;;;3.95;;
74347;SDS011;62778;50.406;10.008;2022-12-07T04:45:58;8.80;;;4.80;;
74347;SDS011;62778;50.406;10.008;2022-12-07T04:46:53;7.93;;;3.93;;
74347;SDS011;62778;50.406;10.008;2022-12-07T04:47:49;8.60;;;3.93;;
74347;SDS011;62778;50.406;10.008;2022-12-07T04:48:44;8.60;;;4.13;;
74347;SDS011;62778;50.406;10.008;2022-12-07T04:49:39;8.90;;;4.10;;
74347;SDS011;62778;50.406;10.008;2022-12-07T04:50:35;8.40;;;4.50;;
74347;SDS011;62778;50.406;10.008;2022-12-07T04:51:30;8.50;;;4.40;;
74347;SDS011;62778;50.406;10.008;2022-12-07T04:52:25;8.70;;;4.25;;
74347;SDS011;62778;50.406;10.008;2022-12-07T04:53:21;8.17;;;4.20;;
74347;SDS011;62778;50.406;10.008;2022-12-07T04:54:16;8.30;;;4.00;;
74347;SDS011;62778;50.406;10.008;2022-12-07T04:55:12;9.00;;;4.18;;
74347;SDS011;62778;50.406;10.008;2022-12-07T04:56:07;8.83;;;4.10;;
74347;SDS011;62778;50.406;10.008;2022-12-07T04:57:03;8.93;;;4.60;;
74347;SDS011;62778;50.406;10.008;2022-12-07T04:57:58;8.37;;;4.60;;
74347;SDS011;62778;50.406;10.008;2022-12-07T04:58:53;9.23;;;4.40;;
74347;SDS011;62778;50.406;10.008;2022-12-07T04:59:49;8.13;;;4.23;;
74347;SDS011;62778;50.406;10.008;2022-12-07T05:00:45;8.52;;;4.28;;
74347;SDS011;62778;50.406;10.008;2022-12-07T05:01:40;8.60;;;4.13;;
74347;SDS011;62778;50.406;10.008;2022-12-07T05:02:36;10.43;;;5.43;;
74347;SDS011;62778;50.406;10.008;2022-12-07T05:03:31;8.95;;;4.30;;
74347;SDS011;62778;50.406;10.008;2022-12-07T05:04:26;8.63;;;4.37;;
74347;SDS011;62778;50.406;10.008;2022-12-07T05:05:22;8.93;;;4.80;;
74347;SDS011;62778;50.406;10.008;2022-12-07T05:06:17;10.33;;;5.73;;
74347;SDS011;62778;50.406;10.008;2022-12-07T05:07:13;10.25;;;5.00;;
74347;SDS011;62778;50.406;10.008;2022-12-07T05:08:08;8.47;;;4.43;;
74347;SDS011;62778;50.406;10.008;2022-12-07T05:09:03;10.13;;;5.57;;
74347;SDS011;62778;50.406;10.008;2022-12-07T05:09:59;10.20;;;4.90;;
74347;SDS011;62778;50.406;10.008;2022-12-07T05:10:54;10.20;;;5.10;;
74347;SDS011;62778;50.406;10.008;2022-12-07T05:11:50;11.27;;;5.63;;
74347;SDS011;62778;50.406;10.008;2022-12-07T05:12:45;11.13;;;5.47;;
74347;SDS011;62778;50.406;10.008;2022-12-07T05:13:40;12.48;;;5.80;;
74347;SDS011;62778;50.406;10.008;2022-12-07T05:14:36;8.40;;;4.60;;
74347;SDS011;62778;50.406;10.008;2022-12-07T05:15:31;10.33;;;6.13;;
74347;SDS011;62778;50.406;10.008;2022-12-07T05:16:26;9.07;;;4.63;;
74347;SDS011;62778;50.406;10.008;2022-12-07T05:17:22;9.35;;;4.80;;
74347;SDS011;62778;50.406;10.008;2022-12-07T05:18:17;9.50;;;4.83;;
74347;SDS011;62778;50.406;10.008;2022-12-07T05:19:13;10.07;;;5.63;;
74347;SDS011;62778;50.406;10.008;2022-12-07T05:20:08;9.82;;;4.95;;
74347;SDS011;62778;50.406;10.008;2022-12-07T05:21:04;8.70;;;4.63;;
74347;SDS011;62778;50.406;10.008;2022-12-07T05:21:59;10.13;;;5.18;;
74347;SDS011;62778;50.406;10.008;2022-12-07T05:22:55;9.27;;;4.73;;
74347;SDS011;62778;50.406;10.008;2022-12-07T05:23:50;9.67;;;4.57;;
74347;SDS011;62778;50.406;10.008;2022-12-07T05:24:46;9.45;;;5.00;;
74347;SDS011;62778;50.406;10.008;2022-12-07T05:25:41;7.90;;;4.00;;
74347;SDS011;62778;50.406;10.008;2022-12-07T05:26:37;8.57;;;4.47;;
74347;SDS011;62778;50.406;10.008;2022-12-07T05:27:32;9.33;;;4.70;;
74347;SDS011;62778;50.406;10.008;2022-12-07T05:28:27;9.07;;;5.05;;
74347;SDS011;62778;50.406;10.008;2022-12-07T05:29:22;9.37;;;4.47;;
74347;SDS011;62778;50.406;10.008;2022-12-07T05:30:18;9.40;;;4.50;;
74347;SDS011;62778;50.406;10.008;2022-12-07T05:31:13;10.33;;;4.60;;
74347;SDS011;62778;50.406;10.008;2022-12-07T05:32:08;8.73;;;4.53;;
74347;SDS011;62778;50.406;10.008;2022-12-07T05:33:04;9.33;;;4.50;;
74347;SDS011;62778;50.406;10.008;2022-12-07T05:34:00;9.33;;;4.97;;
74347;SDS011;62778;50.406;10.008;2022-12-07T05:34:55;10.23;;;4.80;;
74347;SDS011;62778;50.406;10.008;2022-12-07T05:35:50;8.40;;;4.47;;
74347;SDS011;62778;50.406;10.008;2022-12-07T05:36:46;9.13;;;4.60;;
74347;SDS011;62778;50.406;10.008;2022-12-07T05:37:41;9.07;;;4.93;;
74347;SDS011;62778;50.406;10.008;2022-12-07T05:38:36;8.52;;;4.25;;
74347;SDS011;62778;50.406;10.008;2022-12-07T05:39:32;9.10;;;4.37;;
74347;SDS011;62778;50.406;10.008;2022-12-07T05:40:27;8.63;;;4.07;;
74347;SDS011;62778;50.406;10.008;2022-12-07T05:41:22;8.67;;;4.90;;
74347;SDS011;62778;50.406;10.008;2022-12-07T05:42:36;9.52;;;4.40;;
74347;SDS011;62778;50.406;10.008;2022-12-07T05:43:32;8.97;;;4.50;;
74347;SDS011;62778;50.406;10.008;2022-12-07T05:44:28;8.50;;;4.10;;
74347;SDS011;62778;50.406;10.008;2022-12-07T05:45:23;8.30;;;4.73;;
74347;SDS011;62778;50.406;10.008;2022-12-07T05:46:18;9.07;;;4.70;;
74347;SDS011;62778;50.406;10.008;2022-12-07T05:47:14;9.52;;;4.68;;
74347;SDS011;62778;50.406;10.008;2022-12-07T05:48:10;9.07;;;4.80;;
74347;SDS011;62778;50.406;10.008;2022-12-07T05:49:05;8.20;;;4.30;;
74347;SDS011;62778;50.406;10.008;2022-12-07T05:50:00;9.93;;;5.23;;
74347;SDS011;62778;50.406;10.008;2022-12-07T05:50:56;8.07;;;4.40;;
74347;SDS011;62778;50.406;10.008;2022-12-07T05:51:51;9.00;;;4.80;;
74347;SDS011;62778;50.406;10.008;2022-12-07T05:52:46;8.05;;;4.05;;
74347;SDS011;62778;50.406;10.008;2022-12-07T05:53:42;8.63;;;4.30;;
74347;SDS011;62778;50.406;10.008;2022-12-07T05:54:37;9.47;;;4.90;;
74347;SDS011;62778;50.406;10.008;2022-12-07T05:55:33;9.07;;;4.47;;
74347;SDS011;62778;50.406;10.008;2022-12-07T05:56:28;9.25;;;5.07;;
74347;SDS011;62778;50.406;10.008;2022-12-07T05:57:23;11.00;;;5.20;;
74347;SDS011;62778;50.406;10.008;2022-12-07T05:58:19;9.77;;;5.20;;
74347;SDS011;62778;50.406;10.008;2022-12-07T05:59:32;9.45;;;4.70;;
74347;SDS011;62778;50.406;10.008;2022-12-07T06:00:28;8.93;;;4.43;;
74347;SDS011;62778;50.406;10.008;2022-12-07T06:01:23;8.07;;;4.20;;
74347;SDS011;62778;50.406;10.008;2022-12-07T06:02:19;9.90;;;4.93;;
74347;SDS011;62778;50.406;10.008;2022-12-07T06:03:14;8.93;;;4.60;;
74347;SDS011;62778;50.406;10.008;2022-12-07T06:04:09;8.67;;;4.83;;
74347;SDS011;62778;50.406;10.008;2022-12-07T06:05:05;8.43;;;4.27;;
74347;SDS011;62778;50.406;10.008;2022-12-07T06:06:01;8.13;;;3.70;;
74347;SDS011;62778;50.406;10.008;2022-12-07T06:06:56;8.13;;;4.20;;
74347;SDS011;62778;50.406;10.008;2022-12-07T06:07:51;9.93;;;4.80;;